sensor_id;sensor_type;location;lat;lon;timestamp;pressure;altitude;pressure_sealevel;temperature
73734;BMP280;62039;50.000;9.064;2023-03-14T00:00:18;98453.13;;;9.73
73734;BMP280;62039;50.000;9.064;2023-03-14T00:02:44;98445.09;;;9.74
73734;BMP280;62039;50.000;9.064;2023-03-14T00:05:11;98445.91;;;9.75
73734;BMP280;62039;50.000;9.064;2023-03-14T00:07:39;98451.94;;;9.75
73734;BMP280;62039;50.000;9.064;2023-03-14T00:10:09;98451.94;;;9.75
73734;BMP280;62039;50.000;9.064;2023-03-14T00:12:38;98449.50;;;9.74
73734;BMP280;62039;50.000;9.064;2023-03-14T00:15:05;98440.28;;;9.71
73734;BMP280;62039;50.000;9.064;2023-03-14T00:17:33;98441.31;;;9.70
73734;BMP280;62039;50.000;9.064;2023-03-14T00:20:00;98451.72;;;9.70
73734;BMP280;62039;50.000;9.064;2023-03-14T00:22:26;98452.72;;;9.69
73734;BMP280;62039;50.000;9.064;2023-03-14T00:24:53;98464.75;;;9.70
73734;BMP280;62039;50.000;9.064;2023-03-14T00:27:19;98464.53;;;9.72
73734;BMP280;62039;50.000;9.064;2023-03-14T00:29:47;98465.16;;;9.74
73734;BMP280;62039;50.000;9.064;2023-03-14T00:32:14;98460.75;;;9.74
73734;BMP280;62039;50.000;9.064;2023-03-14T00:34:40;98460.75;;;9.74
73734;BMP280;62039;50.000;9.064;2023-03-14T00:37:07;98454.72;;;9.74
73734;BMP280;62039;50.000;9.064;2023-03-14T00:39:34;98461.75;;;9.73
73734;BMP280;62039;50.000;9.064;2023-03-14T00:42:00;98453.91;;;9.73
73734;BMP280;62039;50.000;9.064;2023-03-14T00:44:27;98453.91;;;9.73
73734;BMP280;62039;50.000;9.064;2023-03-14T00:46:55;98439.88;;;9.74
73734;BMP280;62039;50.000;9.064;2023-03-14T00:49:21;98451.13;;;9.75
73734;BMP280;62039;50.000;9.064;2023-03-14T00:51:48;98455.53;;;9.74
73734;BMP280;62039;50.000;9.064;2023-03-14T00:54:14;98463.53;;;9.73
73734;BMP280;62039;50.000;9.064;2023-03-14T00:56:41;98444.50;;;9.72
73734;BMP280;62039;50.000;9.064;2023-03-14T00:59:07;98443.50;;;9.73
73734;BMP280;62039;50.000;9.064;2023-03-14T01:01:34;98437.09;;;9.76
73734;BMP280;62039;50.000;9.064;2023-03-14T01:04:02;98430.06;;;9.76
73734;BMP280;62039;50.000;9.064;2023-03-14T01:06:29;98427.47;;;9.76
73734;BMP280;62039;50.000;9.064;2023-03-14T01:08:56;98418.66;;;9.77
73734;BMP280;62039;50.000;9.064;2023-03-14T01:11:25;98424.25;;;9.81
73734;BMP280;62039;50.000;9.064;2023-03-14T01:13:52;98423.25;;;9.82
73734;BMP280;62039;50.000;9.064;2023-03-14T01:16:19;98429.88;;;9.85
73734;BMP280;62039;50.000;9.064;2023-03-14T01:18:46;98445.72;;;9.83
73734;BMP280;62039;50.000;9.064;2023-03-14T01:21:16;98430.88;;;9.84
73734;BMP280;62039;50.000;9.064;2023-03-14T01:23:44;98446.28;;;9.85
73734;BMP280;62039;50.000;9.064;2023-03-14T01:26:12;98452.13;;;9.87
73734;BMP280;62039;50.000;9.064;2023-03-14T01:28:39;98434.50;;;9.89
73734;BMP280;62039;50.000;9.064;2023-03-14T01:31:08;98429.66;;;9.93
73734;BMP280;62039;50.000;9.064;2023-03-14T01:33:35;98446.91;;;9.94
73734;BMP280;62039;50.000;9.064;2023-03-14T01:36:01;98435.47;;;9.95
73734;BMP280;62039;50.000;9.064;2023-03-14T01:38:30;98435.47;;;9.95
73734;BMP280;62039;50.000;9.064;2023-03-14T01:40:57;98429.66;;;9.93
73734;BMP280;62039;50.000;9.064;2023-03-14T01:43:24;98422.84;;;9.92
73734;BMP280;62039;50.000;9.064;2023-03-14T01:48:51;98404.00;;;9.90
73734;BMP280;62039;50.000;9.064;2023-03-14T01:51:22;98401.41;;;9.90
73734;BMP280;62039;50.000;9.064;2023-03-14T01:53:53;98400.16;;;9.92
73734;BMP280;62039;50.000;9.064;2023-03-14T01:56:21;98390.34;;;9.94
73734;BMP280;62039;50.000;9.064;2023-03-14T01:58:50;98383.94;;;9.97
73734;BMP280;62039;50.000;9.064;2023-03-14T02:01:20;98385.31;;;9.99
73734;BMP280;62039;50.000;9.064;2023-03-14T02:03:50;98381.50;;;10.02
73734;BMP280;62039;50.000;9.064;2023-03-14T02:06:21;98369.28;;;10.02
73734;BMP280;62039;50.000;9.064;2023-03-14T02:08:50;98372.69;;;10.03
73734;BMP280;62039;50.000;9.064;2023-03-14T02:11:17;98358.03;;;10.02
73734;BMP280;62039;50.000;9.064;2023-03-14T02:13:44;98347.59;;;10.02
73734;BMP280;62039;50.000;9.064;2023-03-14T02:16:12;98353.81;;;10.01
73734;BMP280;62039;50.000;9.064;2023-03-14T02:18:38;98342.78;;;9.99
73734;BMP280;62039;50.000;9.064;2023-03-14T02:21:09;98337.56;;;9.99
73734;BMP280;62039;50.000;9.064;2023-03-14T02:23:43;98330.78;;;9.98
73734;BMP280;62039;50.000;9.064;2023-03-14T02:26:17;98317.13;;;9.96
73734;BMP280;62039;50.000;9.064;2023-03-14T02:28:49;98318.13;;;9.95
73734;BMP280;62039;50.000;9.064;2023-03-14T02:31:16;98322.75;;;9.93
73734;BMP280;62039;50.000;9.064;2023-03-14T02:33:43;98324.78;;;9.91
73734;BMP280;62039;50.000;9.064;2023-03-14T02:36:11;98326.78;;;9.89
73734;BMP280;62039;50.000;9.064;2023-03-14T02:38:44;98311.53;;;9.86
73734;BMP280;62039;50.000;9.064;2023-03-14T02:41:13;98315.16;;;9.85
73734;BMP280;62039;50.000;9.064;2023-03-14T02:43:40;98313.56;;;9.84
73734;BMP280;62039;50.000;9.064;2023-03-14T02:46:10;98309.34;;;9.83
73734;BMP280;62039;50.000;9.064;2023-03-14T02:48:40;98307.72;;;9.81
73734;BMP280;62039;50.000;9.064;2023-03-14T02:51:07;98302.72;;;9.80
73734;BMP280;62039;50.000;9.064;2023-03-14T02:53:35;98306.53;;;9.77
73734;BMP280;62039;50.000;9.064;2023-03-14T02:56:03;98304.94;;;9.76
73734;BMP280;62039;50.000;9.064;2023-03-14T02:58:30;98294.50;;;9.76
73734;BMP280;62039;50.000;9.064;2023-03-14T03:00:56;98310.16;;;9.76
73734;BMP280;62039;50.000;9.064;2023-03-14T03:03:24;98310.16;;;9.76
73734;BMP280;62039;50.000;9.064;2023-03-14T03:05:52;98305.13;;;9.75
73734;BMP280;62039;50.000;9.064;2023-03-14T03:08:20;98316.38;;;9.75
73734;BMP280;62039;50.000;9.064;2023-03-14T03:10:47;98317.38;;;9.74
73734;BMP280;62039;50.000;9.064;2023-03-14T03:13:14;98304.34;;;9.74
73734;BMP280;62039;50.000;9.064;2023-03-14T03:15:41;98326.00;;;9.75
73734;BMP280;62039;50.000;9.064;2023-03-14T03:18:08;98311.16;;;9.75
73734;BMP280;62039;50.000;9.064;2023-03-14T03:20:36;98304.94;;;9.76
73734;BMP280;62039;50.000;9.064;2023-03-14T03:23:04;98318.78;;;9.77
73734;BMP280;62039;50.000;9.064;2023-03-14T03:25:31;98316.38;;;9.75
73734;BMP280;62039;50.000;9.064;2023-03-14T03:27:58;98308.53;;;9.75
73734;BMP280;62039;50.000;9.064;2023-03-14T03:30:25;98293.91;;;9.74
73734;BMP280;62039;50.000;9.064;2023-03-14T03:32:51;98297.91;;;9.77
73734;BMP280;62039;50.000;9.064;2023-03-14T03:35:18;98291.09;;;9.76
73734;BMP280;62039;50.000;9.064;2023-03-14T03:37:46;98297.13;;;9.76
73734;BMP280;62039;50.000;9.064;2023-03-14T03:40:13;98298.91;;;9.76
73734;BMP280;62039;50.000;9.064;2023-03-14T03:42:39;98290.31;;;9.75
73734;BMP280;62039;50.000;9.064;2023-03-14T03:45:07;98295.31;;;9.77
73734;BMP280;62039;50.000;9.064;2023-03-14T03:47:33;98270.06;;;9.77
73734;BMP280;62039;50.000;9.064;2023-03-14T03:50:00;98261.19;;;9.78
73734;BMP280;62039;50.000;9.064;2023-03-14T03:52:27;98275.03;;;9.79
73734;BMP280;62039;50.000;9.064;2023-03-14T03:54:54;98269.00;;;9.78
73734;BMP280;62039;50.000;9.064;2023-03-14T03:57:21;98265.84;;;9.76
73734;BMP280;62039;50.000;9.064;2023-03-14T03:59:48;98257.41;;;9.74
73734;BMP280;62039;50.000;9.064;2023-03-14T04:02:14;98262.63;;;9.74
73734;BMP280;62039;50.000;9.064;2023-03-14T04:04:41;98260.81;;;9.75
73734;BMP280;62039;50.000;9.064;2023-03-14T04:07:07;98255.59;;;9.75
73734;BMP280;62039;50.000;9.064;2023-03-14T04:09:34;98254.19;;;9.72
73734;BMP280;62039;50.000;9.064;2023-03-14T04:12:02;98257.81;;;9.71
73734;BMP280;62039;50.000;9.064;2023-03-14T04:14:28;98250.22;;;9.70
73734;BMP280;62039;50.000;9.064;2023-03-14T04:16:55;98245.81;;;9.70
73734;BMP280;62039;50.000;9.064;2023-03-14T04:19:21;98260.63;;;9.70
73734;BMP280;62039;50.000;9.064;2023-03-14T04:21:48;98264.84;;;9.71
73734;BMP280;62039;50.000;9.064;2023-03-14T04:24:15;98274.25;;;9.72
73734;BMP280;62039;50.000;9.064;2023-03-14T04:26:41;98269.84;;;9.72
73734;BMP280;62039;50.000;9.064;2023-03-14T04:29:09;98266.22;;;9.73
73734;BMP280;62039;50.000;9.064;2023-03-14T04:31:38;98259.41;;;9.72
73734;BMP280;62039;50.000;9.064;2023-03-14T04:34:05;98254.19;;;9.72
73734;BMP280;62039;50.000;9.064;2023-03-14T04:36:32;98257.59;;;9.73
73734;BMP280;62039;50.000;9.064;2023-03-14T04:38:58;98255.00;;;9.73
73734;BMP280;62039;50.000;9.064;2023-03-14T04:41:25;98252.38;;;9.73
73734;BMP280;62039;50.000;9.064;2023-03-14T04:43:51;98259.00;;;9.75
73734;BMP280;62039;50.000;9.064;2023-03-14T04:46:19;98252.19;;;9.74
73734;BMP280;62039;50.000;9.064;2023-03-14T04:48:46;98251.19;;;9.75
73734;BMP280;62039;50.000;9.064;2023-03-14T04:51:12;98240.97;;;9.74
73734;BMP280;62039;50.000;9.064;2023-03-14T04:53:39;98248.78;;;9.74
73734;BMP280;62039;50.000;9.064;2023-03-14T04:56:06;98230.53;;;9.74
73734;BMP280;62039;50.000;9.064;2023-03-14T04:58:33;98241.78;;;9.74
73734;BMP280;62039;50.000;9.064;2023-03-14T05:01:01;98229.72;;;9.73
73734;BMP280;62039;50.000;9.064;2023-03-14T05:03:29;98229.72;;;9.73
73734;BMP280;62039;50.000;9.064;2023-03-14T05:05:56;98219.31;;;9.73
73734;BMP280;62039;50.000;9.064;2023-03-14T05:08:23;98220.91;;;9.74
73734;BMP280;62039;50.000;9.064;2023-03-14T05:10:52;98225.94;;;9.76
73734;BMP280;62039;50.000;9.064;2023-03-14T05:13:19;98219.09;;;9.75
73734;BMP280;62039;50.000;9.064;2023-03-14T05:15:45;98219.72;;;9.77
73734;BMP280;62039;50.000;9.064;2023-03-14T05:18:12;98212.91;;;9.76
73734;BMP280;62039;50.000;9.064;2023-03-14T05:20:40;98205.88;;;9.76
73734;BMP280;62039;50.000;9.064;2023-03-14T05:23:06;98190.44;;;9.75
73734;BMP280;62039;50.000;9.064;2023-03-14T05:25:33;98186.81;;;9.76
73734;BMP280;62039;50.000;9.064;2023-03-14T05:27:59;98183.41;;;9.75
73734;BMP280;62039;50.000;9.064;2023-03-14T05:30:26;98179.22;;;9.74
73734;BMP280;62039;50.000;9.064;2023-03-14T05:32:52;98177.41;;;9.75
73734;BMP280;62039;50.000;9.064;2023-03-14T05:35:19;98174.78;;;9.75
73734;BMP280;62039;50.000;9.064;2023-03-14T05:37:47;98182.41;;;9.76
73734;BMP280;62039;50.000;9.064;2023-03-14T05:40:14;98182.41;;;9.76
73734;BMP280;62039;50.000;9.064;2023-03-14T05:42:41;98182.41;;;9.76
73734;BMP280;62039;50.000;9.064;2023-03-14T05:45:08;98190.22;;;9.76
73734;BMP280;62039;50.000;9.064;2023-03-14T05:47:34;98194.84;;;9.74
73734;BMP280;62039;50.000;9.064;2023-03-14T05:50:01;98201.06;;;9.73
73734;BMP280;62039;50.000;9.064;2023-03-14T05:52:27;98193.25;;;9.73
73734;BMP280;62039;50.000;9.064;2023-03-14T05:54:55;98196.84;;;9.72
73734;BMP280;62039;50.000;9.064;2023-03-14T05:57:22;98202.06;;;9.72
73734;BMP280;62039;50.000;9.064;2023-03-14T05:59:48;98193.66;;;9.70
73734;BMP280;62039;50.000;9.064;2023-03-14T06:02:15;98188.44;;;9.70
73734;BMP280;62039;50.000;9.064;2023-03-14T06:04:41;98186.84;;;9.69
73734;BMP280;62039;50.000;9.064;2023-03-14T06:07:08;98193.66;;;9.70
73734;BMP280;62039;50.000;9.064;2023-03-14T06:09:35;98196.47;;;9.69
73734;BMP280;62039;50.000;9.064;2023-03-14T06:12:03;98190.47;;;9.68
73734;BMP280;62039;50.000;9.064;2023-03-14T06:14:30;98187.25;;;9.66
73734;BMP280;62039;50.000;9.064;2023-03-14T06:16:56;98192.09;;;9.63
73734;BMP280;62039;50.000;9.064;2023-03-14T06:19:23;98194.25;;;9.59
73734;BMP280;62039;50.000;9.064;2023-03-14T06:21:49;98200.47;;;9.58
73734;BMP280;62039;50.000;9.064;2023-03-14T06:24:16;98198.47;;;9.60
73734;BMP280;62039;50.000;9.064;2023-03-14T06:26:42;98205.31;;;9.61
73734;BMP280;62039;50.000;9.064;2023-03-14T06:29:10;98198.28;;;9.62
73734;BMP280;62039;50.000;9.064;2023-03-14T06:31:37;98204.50;;;9.61
73734;BMP280;62039;50.000;9.064;2023-03-14T06:34:03;98190.84;;;9.59
73734;BMP280;62039;50.000;9.064;2023-03-14T06:36:30;98188.47;;;9.57
73734;BMP280;62039;50.000;9.064;2023-03-14T06:38:56;98192.06;;;9.56
73734;BMP280;62039;50.000;9.064;2023-03-14T06:41:23;98189.66;;;9.55
73734;BMP280;62039;50.000;9.064;2023-03-14T06:43:50;98177.44;;;9.55
73734;BMP280;62039;50.000;9.064;2023-03-14T06:46:17;98180.03;;;9.55
73734;BMP280;62039;50.000;9.064;2023-03-14T06:48:44;98181.84;;;9.55
73734;BMP280;62039;50.000;9.064;2023-03-14T06:51:10;98169.63;;;9.55
73734;BMP280;62039;50.000;9.064;2023-03-14T06:53:37;98170.63;;;9.54
73734;BMP280;62039;50.000;9.064;2023-03-14T06:56:05;98181.25;;;9.53
73734;BMP280;62039;50.000;9.064;2023-03-14T06:58:31;98185.66;;;9.52
73734;BMP280;62039;50.000;9.064;2023-03-14T07:00:58;98176.81;;;9.53
73734;BMP280;62039;50.000;9.064;2023-03-14T07:03:26;98181.03;;;9.54
73734;BMP280;62039;50.000;9.064;2023-03-14T07:05:53;98185.25;;;9.55
73734;BMP280;62039;50.000;9.064;2023-03-14T07:08:19;98189.06;;;9.53
73734;BMP280;62039;50.000;9.064;2023-03-14T07:10:46;98189.84;;;9.53
73734;BMP280;62039;50.000;9.064;2023-03-14T07:13:12;98191.47;;;9.54
73734;BMP280;62039;50.000;9.064;2023-03-14T07:15:39;98182.66;;;9.55
73734;BMP280;62039;50.000;9.064;2023-03-14T07:18:05;98187.66;;;9.57
73734;BMP280;62039;50.000;9.064;2023-03-14T07:20:33;98177.63;;;9.60
73734;BMP280;62039;50.000;9.064;2023-03-14T07:23:00;98189.69;;;9.61
73734;BMP280;62039;50.000;9.064;2023-03-14T07:25:26;98188.66;;;9.62
73734;BMP280;62039;50.000;9.064;2023-03-14T07:27:53;98186.06;;;9.62
73734;BMP280;62039;50.000;9.064;2023-03-14T07:30:20;98186.06;;;9.62
73734;BMP280;62039;50.000;9.064;2023-03-14T07:32:46;98188.47;;;9.64
73734;BMP280;62039;50.000;9.064;2023-03-14T07:35:13;98191.28;;;9.62
73734;BMP280;62039;50.000;9.064;2023-03-14T07:37:41;98179.84;;;9.63
73734;BMP280;62039;50.000;9.064;2023-03-14T07:40:08;98185.06;;;9.63
73734;BMP280;62039;50.000;9.064;2023-03-14T07:42:35;98176.44;;;9.63
73734;BMP280;62039;50.000;9.064;2023-03-14T07:45:02;98185.06;;;9.63
73734;BMP280;62039;50.000;9.064;2023-03-14T07:47:28;98184.25;;;9.63
73734;BMP280;62039;50.000;9.064;2023-03-14T07:49:55;98184.25;;;9.63
73734;BMP280;62039;50.000;9.064;2023-03-14T07:52:21;98184.84;;;9.65
73734;BMP280;62039;50.000;9.064;2023-03-14T07:54:49;98179.44;;;9.66
73734;BMP280;62039;50.000;9.064;2023-03-14T07:57:16;98170.00;;;9.65
73734;BMP280;62039;50.000;9.064;2023-03-14T07:59:43;98188.25;;;9.65
73734;BMP280;62039;50.000;9.064;2023-03-14T08:02:10;98180.44;;;9.65
73734;BMP280;62039;50.000;9.064;2023-03-14T08:04:37;98178.84;;;9.64
73734;BMP280;62039;50.000;9.064;2023-03-14T08:07:04;98184.06;;;9.64
73734;BMP280;62039;50.000;9.064;2023-03-14T08:09:31;98185.63;;;9.65
73734;BMP280;62039;50.000;9.064;2023-03-14T08:11:59;98180.44;;;9.65
73734;BMP280;62039;50.000;9.064;2023-03-14T08:14:25;98178.84;;;9.64
73734;BMP280;62039;50.000;9.064;2023-03-14T08:16:52;98169.19;;;9.65
73734;BMP280;62039;50.000;9.064;2023-03-14T08:19:18;98188.84;;;9.67
73734;BMP280;62039;50.000;9.064;2023-03-14T08:21:45;98184.25;;;9.69
73734;BMP280;62039;50.000;9.064;2023-03-14T08:24:12;98188.44;;;9.70
73734;BMP280;62039;50.000;9.064;2023-03-14T08:26:38;98182.00;;;9.73
73734;BMP280;62039;50.000;9.064;2023-03-14T08:29:06;98183.41;;;9.75
73734;BMP280;62039;50.000;9.064;2023-03-14T08:31:33;98185.59;;;9.78
73734;BMP280;62039;50.000;9.064;2023-03-14T08:34:00;98188.59;;;9.82
73734;BMP280;62039;50.000;9.064;2023-03-14T08:36:27;98194.63;;;9.83
73734;BMP280;62039;50.000;9.064;2023-03-14T08:38:54;98185.81;;;9.84
73734;BMP280;62039;50.000;9.064;2023-03-14T08:41:21;98193.38;;;9.85
73734;BMP280;62039;50.000;9.064;2023-03-14T08:43:47;98201.63;;;9.89
73734;BMP280;62039;50.000;9.064;2023-03-14T08:46:15;98196.78;;;9.92
73734;BMP280;62039;50.000;9.064;2023-03-14T08:48:42;98197.97;;;9.96
73734;BMP280;62039;50.000;9.064;2023-03-14T08:51:09;98190.53;;;10.00
73734;BMP280;62039;50.000;9.064;2023-03-14T08:53:36;98199.97;;;10.01
73734;BMP280;62039;50.000;9.064;2023-03-14T08:56:03;98194.53;;;10.02
73734;BMP280;62039;50.000;9.064;2023-03-14T08:58:30;98198.75;;;10.03
73734;BMP280;62039;50.000;9.064;2023-03-14T09:00:56;98218.81;;;10.03
73734;BMP280;62039;50.000;9.064;2023-03-14T09:03:24;98208.38;;;10.03
73734;BMP280;62039;50.000;9.064;2023-03-14T09:05:51;98210.00;;;10.04
73734;BMP280;62039;50.000;9.064;2023-03-14T09:08:18;98219.63;;;10.03
73734;BMP280;62039;50.000;9.064;2023-03-14T09:10:45;98212.16;;;10.07
73734;BMP280;62039;50.000;9.064;2023-03-14T09:13:11;98215.59;;;10.07
73734;BMP280;62039;50.000;9.064;2023-03-14T09:15:38;98202.34;;;10.09
73734;BMP280;62039;50.000;9.064;2023-03-14T09:18:04;98206.13;;;10.13
73734;BMP280;62039;50.000;9.064;2023-03-14T09:20:32;98202.09;;;10.17
73734;BMP280;62039;50.000;9.064;2023-03-14T09:22:59;98203.47;;;10.19
73734;BMP280;62039;50.000;9.064;2023-03-14T09:25:25;98211.91;;;10.21
73734;BMP280;62039;50.000;9.064;2023-03-14T09:27:52;98202.28;;;10.22
73734;BMP280;62039;50.000;9.064;2023-03-14T09:30:18;98202.88;;;10.24
73734;BMP280;62039;50.000;9.064;2023-03-14T09:32:45;98212.06;;;10.27
73734;BMP280;62039;50.000;9.064;2023-03-14T09:35:12;98209.88;;;10.30
73734;BMP280;62039;50.000;9.064;2023-03-14T09:37:39;98207.81;;;10.32
73734;BMP280;62039;50.000;9.064;2023-03-14T09:40:09;98208.63;;;10.33
73734;BMP280;62039;50.000;9.064;2023-03-14T09:42:37;98205.22;;;10.32
73734;BMP280;62039;50.000;9.064;2023-03-14T09:45:07;98205.81;;;10.34
73734;BMP280;62039;50.000;9.064;2023-03-14T09:47:37;98204.22;;;10.33
73734;BMP280;62039;50.000;9.064;2023-03-14T09:50:19;98201.41;;;10.35
73734;BMP280;62039;50.000;9.064;2023-03-14T09:52:48;98193.38;;;10.36
73734;BMP280;62039;50.000;9.064;2023-03-14T09:55:18;98202.19;;;10.35
73734;BMP280;62039;50.000;9.064;2023-03-14T09:57:46;98207.03;;;10.38
73734;BMP280;62039;50.000;9.064;2023-03-14T10:00:16;98207.19;;;10.43
73734;BMP280;62039;50.000;9.064;2023-03-14T10:02:49;98210.16;;;10.47
73734;BMP280;62039;50.000;9.064;2023-03-14T10:05:18;98197.31;;;10.52
73734;BMP280;62039;50.000;9.064;2023-03-14T10:07:47;98196.50;;;10.58
73734;BMP280;62039;50.000;9.064;2023-03-14T10:10:16;98202.88;;;10.62
73734;BMP280;62039;50.000;9.064;2023-03-14T10:12:46;98194.63;;;10.65
73734;BMP280;62039;50.000;9.064;2023-03-14T10:15:15;98206.44;;;10.68
73734;BMP280;62039;50.000;9.064;2023-03-14T10:17:43;98207.66;;;10.72
73734;BMP280;62039;50.000;9.064;2023-03-14T10:20:27;98208.66;;;10.71
73734;BMP280;62039;50.000;9.064;2023-03-14T10:22:55;98208.66;;;10.71
73734;BMP280;62039;50.000;9.064;2023-03-14T10:25:26;98208.22;;;10.74
73734;BMP280;62039;50.000;9.064;2023-03-14T10:27:53;98210.81;;;10.74
73734;BMP280;62039;50.000;9.064;2023-03-14T10:30:30;98198.38;;;10.76
73734;BMP280;62039;50.000;9.064;2023-03-14T10:33:08;98215.47;;;10.72
73734;BMP280;62039;50.000;9.064;2023-03-14T10:35:35;98215.28;;;10.67
73734;BMP280;62039;50.000;9.064;2023-03-14T10:38:04;98208.91;;;10.63
73734;BMP280;62039;50.000;9.064;2023-03-14T10:40:31;98208.50;;;10.59
73734;BMP280;62039;50.000;9.064;2023-03-14T10:42:59;98206.94;;;10.58
73734;BMP280;62039;50.000;9.064;2023-03-14T10:45:35;98211.34;;;10.57
73734;BMP280;62039;50.000;9.064;2023-03-14T10:48:22;98215.34;;;10.53
73734;BMP280;62039;50.000;9.064;2023-03-14T10:50:54;98201.72;;;10.51
73734;BMP280;62039;50.000;9.064;2023-03-14T10:53:23;98214.16;;;10.49
73734;BMP280;62039;50.000;9.064;2023-03-14T10:55:52;98210.97;;;10.47
73734;BMP280;62039;50.000;9.064;2023-03-14T10:58:23;98205.94;;;10.46
73734;BMP280;62039;50.000;9.064;2023-03-14T11:00:54;98196.31;;;10.46
73734;BMP280;62039;50.000;9.064;2023-03-14T11:03:25;98210.16;;;10.47
73734;BMP280;62039;50.000;9.064;2023-03-14T11:05:56;98196.53;;;10.45
73734;BMP280;62039;50.000;9.064;2023-03-14T11:08:27;98198.75;;;10.41
73734;BMP280;62039;50.000;9.064;2023-03-14T11:11:06;98194.75;;;10.39
73734;BMP280;62039;50.000;9.064;2023-03-14T11:13:38;98202.81;;;10.37
73734;BMP280;62039;50.000;9.064;2023-03-14T11:16:11;98204.81;;;10.35
73734;BMP280;62039;50.000;9.064;2023-03-14T11:19:01;98200.00;;;10.32
73734;BMP280;62039;50.000;9.064;2023-03-14T11:21:32;98194.00;;;10.32
73734;BMP280;62039;50.000;9.064;2023-03-14T11:24:21;98203.03;;;10.29
73734;BMP280;62039;50.000;9.064;2023-03-14T11:26:52;98202.25;;;10.29
73734;BMP280;62039;50.000;9.064;2023-03-14T11:29:23;98200.44;;;10.29
73734;BMP280;62039;50.000;9.064;2023-03-14T11:31:55;98196.81;;;10.30
73734;BMP280;62039;50.000;9.064;2023-03-14T11:34:27;98195.00;;;10.31
73734;BMP280;62039;50.000;9.064;2023-03-14T11:36:59;98191.41;;;10.32
73734;BMP280;62039;50.000;9.064;2023-03-14T11:39:36;98187.75;;;10.33
73734;BMP280;62039;50.000;9.064;2023-03-14T11:42:04;98186.38;;;10.30
73734;BMP280;62039;50.000;9.064;2023-03-14T11:44:37;98190.81;;;10.30
73734;BMP280;62039;50.000;9.064;2023-03-14T11:47:07;98189.19;;;10.29
73734;BMP280;62039;50.000;9.064;2023-03-14T11:49:40;98198.81;;;10.28
73734;BMP280;62039;50.000;9.064;2023-03-14T11:52:11;98186.59;;;10.29
73734;BMP280;62039;50.000;9.064;2023-03-14T11:54:43;98189.78;;;10.31
73734;BMP280;62039;50.000;9.064;2023-03-14T11:57:12;98181.16;;;10.30
73734;BMP280;62039;50.000;9.064;2023-03-14T11:59:47;98196.81;;;10.30
73734;BMP280;62039;50.000;9.064;2023-03-14T12:02:22;98207.25;;;10.30
73734;BMP280;62039;50.000;9.064;2023-03-14T12:04:57;98203.03;;;10.29
73734;BMP280;62039;50.000;9.064;2023-03-14T12:07:34;98208.66;;;10.26
73734;BMP280;62039;50.000;9.064;2023-03-14T12:10:05;98202.28;;;10.22
73734;BMP280;62039;50.000;9.064;2023-03-14T12:12:32;98204.47;;;10.18
73734;BMP280;62039;50.000;9.064;2023-03-14T12:15:00;98198.91;;;10.15
73734;BMP280;62039;50.000;9.064;2023-03-14T12:17:34;98201.50;;;10.15
73734;BMP280;62039;50.000;9.064;2023-03-14T12:20:05;98202.50;;;10.14
73734;BMP280;62039;50.000;9.064;2023-03-14T12:22:35;98198.28;;;10.13
73734;BMP280;62039;50.000;9.064;2023-03-14T12:25:13;98203.75;;;10.11
73734;BMP280;62039;50.000;9.064;2023-03-14T12:27:44;98201.53;;;10.08
73734;BMP280;62039;50.000;9.064;2023-03-14T12:30:18;98203.53;;;10.06
73734;BMP280;62039;50.000;9.064;2023-03-14T12:33:11;98203.38;;;10.01
73734;BMP280;62039;50.000;9.064;2023-03-14T12:35:39;98225.22;;;10.00
73734;BMP280;62039;50.000;9.064;2023-03-14T12:38:10;98241.06;;;9.99
73734;BMP280;62039;50.000;9.064;2023-03-14T12:40:47;98304.28;;;9.94
73734;BMP280;62039;50.000;9.064;2023-03-14T12:43:25;98323.97;;;9.84
73734;BMP280;62039;50.000;9.064;2023-03-14T12:46:19;98358.47;;;9.66
73734;BMP280;62039;50.000;9.064;2023-03-14T12:48:47;98382.50;;;9.48
73734;BMP280;62039;50.000;9.064;2023-03-14T12:51:16;98402.91;;;9.31
73734;BMP280;62039;50.000;9.064;2023-03-14T12:54:01;98408.50;;;9.15
73734;BMP280;62039;50.000;9.064;2023-03-14T12:56:43;98425.69;;;9.03
73734;BMP280;62039;50.000;9.064;2023-03-14T12:59:26;98433.25;;;8.91
73734;BMP280;62039;50.000;9.064;2023-03-14T13:01:55;98440.63;;;8.81
73734;BMP280;62039;50.000;9.064;2023-03-14T13:04:28;98452.81;;;8.74
73734;BMP280;62039;50.000;9.064;2023-03-14T13:07:10;98468.75;;;8.64
73734;BMP280;62039;50.000;9.064;2023-03-14T13:10:02;98479.50;;;8.55
73734;BMP280;62039;50.000;9.064;2023-03-14T13:12:37;98497.50;;;8.50
73734;BMP280;62039;50.000;9.064;2023-03-14T13:15:17;98503.63;;;8.42
73734;BMP280;62039;50.000;9.064;2023-03-14T13:17:45;98514.00;;;8.36
73734;BMP280;62039;50.000;9.064;2023-03-14T13:20:16;98526.38;;;8.34
73734;BMP280;62039;50.000;9.064;2023-03-14T13:22:47;98528.00;;;8.35
73734;BMP280;62039;50.000;9.064;2023-03-14T13:25:14;98542.63;;;8.36
73734;BMP280;62039;50.000;9.064;2023-03-14T13:27:42;98547.41;;;8.39
73734;BMP280;62039;50.000;9.064;2023-03-14T13:30:23;98567.88;;;8.42
73734;BMP280;62039;50.000;9.064;2023-03-14T13:32:51;98569.47;;;8.43
73734;BMP280;62039;50.000;9.064;2023-03-14T13:35:20;98584.06;;;8.44
73734;BMP280;62039;50.000;9.064;2023-03-14T13:37:53;98590.91;;;8.45
73734;BMP280;62039;50.000;9.064;2023-03-14T13:40:35;98616.91;;;8.45
73734;BMP280;62039;50.000;9.064;2023-03-14T13:43:09;98607.06;;;8.40
73734;BMP280;62039;50.000;9.064;2023-03-14T13:46:01;98622.63;;;8.34
73734;BMP280;62039;50.000;9.064;2023-03-14T13:48:29;98621.41;;;8.30
73734;BMP280;62039;50.000;9.064;2023-03-14T13:51:00;98621.41;;;8.30
73734;BMP280;62039;50.000;9.064;2023-03-14T13:53:27;98643.19;;;8.29
73734;BMP280;62039;50.000;9.064;2023-03-14T13:55:54;98651.81;;;8.29
73734;BMP280;62039;50.000;9.064;2023-03-14T13:58:25;98658.41;;;8.32
73734;BMP280;62039;50.000;9.064;2023-03-14T14:01:11;98669.81;;;8.31
73734;BMP280;62039;50.000;9.064;2023-03-14T14:03:41;98675.00;;;8.31
73734;BMP280;62039;50.000;9.064;2023-03-14T14:06:10;98677.63;;;8.31
73734;BMP280;62039;50.000;9.064;2023-03-14T14:08:43;98686.22;;;8.31
73734;BMP280;62039;50.000;9.064;2023-03-14T14:11:12;98698.69;;;8.36
73734;BMP280;62039;50.000;9.064;2023-03-14T14:13:47;98701.31;;;8.36
73734;BMP280;62039;50.000;9.064;2023-03-14T14:16:15;98705.31;;;8.38
73734;BMP280;62039;50.000;9.064;2023-03-14T14:18:43;98715.53;;;8.40
73734;BMP280;62039;50.000;9.064;2023-03-14T14:21:11;98717.16;;;8.41
73734;BMP280;62039;50.000;9.064;2023-03-14T14:23:38;98738.78;;;8.41
73734;BMP280;62039;50.000;9.064;2023-03-14T14:26:05;98745.78;;;8.41
73734;BMP280;62039;50.000;9.064;2023-03-14T14:28:36;98766.13;;;8.37
73734;BMP280;62039;50.000;9.064;2023-03-14T14:31:17;98774.50;;;8.33